To NAV CANADA Home Page Login to a new session Search on AWWS site Feedback and Comments Disclaimer Vers la page française équivalente Tips FAQ What's new on the site To the Forecasts and Observations / NOTAM section To "File a Flight Plan" website Publications and other links Update of the User's profile FIC Telephone Numbers My Weather Data Folder Route Weather Data Regional Weather Data Local Weather Data To the Forecasts and Observations / NOTAM section
Request Generated 04/28/2015 at 03:52:28 UTC . Weather information available at that time is displayed.

METAR/TAF

EDMONTON/EDMONTON INTL/AB    

METAR CYEG 280300Z CCA 14010KT 15SM FEW056 FEW140 FEW180 SCT220
BKN280 13/M01 A3003 RMK CF1AC1AC1CI2CI3 CF TR LWR AC TR CONTRAILS
SLP186 DENSITY ALT 2500FT=
METAR CYEG 280300Z 14010KT 15SM FEW056 FEW140 FEW180 SCT220 BKN280
13/M01 A3003 RMK CF1AC1AC1CI2CI3 CF TR AC TR CONTRAILS SLP186
DENSITY ALT 2500FT=
METAR CYEG 280200Z 15012KT 15SM FEW140 SCT180 BKN220 15/M03 A3002 RMK
AC1AC2CI4 SLP185 DENSITY ALT 2700FT=
METAR CYEG 280100Z 16012G17KT 15SM FEW160 BKN220 17/M03 A3003 RMK
AC1CI7 AC TR SLP189 DENSITY ALT 3000FT=

TAF CYEG 280238Z 2803/2824 15012KT P6SM SCT180 BKN240
FM280700 16010KT P6SM FEW200
BECMG 2818/2820 16015KT
RMK NXT FCST BY 280600Z=
Your time UTC time
Weather data provided by Environment Canada and NAV CANADA